Rondeau, Canada
Current Conditions -  °F | °C
As of 10:00 PM on Sunday 23 Nov 2014 (Local Time) from CYCK Reporting Station
Light Rain Light Rain  
Wind Chill: 50°   Ceiling: 4300
Heat Index: 50°   Visibility: 4mi
Dew Point: 48°   Wind: 21mph
Humidity: 94%   Direction: 130°SE
Pressure: 29.46"   Gusts: 29mph
Location:  42.28°N, 81.87°W
Report Text: CYCK 240300Z AUTO 13018G25KT 4SM -RA BR FEW027 OVC043 10/09 A2946 RMK PRESFR PCPN 5.2MM PAST HR SLP979
Loading
Personal Weather Stations






























Interactive Weather Map New forecast layout! Learn more

10-Day Weather Forecast

Advertisements
Track Severe Weather on mobile